Tiempo atmosférico en la estación meteorológica de Fonfría, Teruel (1262 m.)



Fecha
DESCASC
Temp. máxima en grados centígrados (hora)
DESCASC
Temp. mínima en grados centígrados (hora)
DESCASC
Temp. media en grados centígrados
DESCASC
Racha de viento máxima en m/sg (hora)
DESCASC
Velocidad máxima media en intervalos de 10 minutos(hora)
DESCASC
Precipitaciones diarias en mm
DESCASC
Precipitaciones de 00:00 a 06:00 en mm
DESCASC
Precipitaciones de 06:00 a 12:00 en mm
DESCASC
Precipitaciones de 12:00 a 18:00 en mm
DESCASC
Precipitaciones de 18:00 a 24:00 en mm
DESCASC
06-07-2020 23.6 (15:10) 14.7 (23:59) 19.2 10 (20:00) 6.39 (20:00) 0 0 0 0 0
05-07-2020 27.4 (15:20) 13.3 (06:20) 20.3 6.39 (15:40) 3.89 (01:30) 0 0 0 0 0
04-07-2020 25.3 (16:30) 10.1 (03:20) 17.7 11.11 (14:00) 5.28 (12:10) 0 0 0 0 0
03-07-2020 21.3 (16:00) 10.2 (04:40) 15.7 8.33 (00:30) 5.28 (00:20) 0 0 0 0 0
02-07-2020 23.5 (16:00) 11 (00:00) 17.3 8.89 (18:10) 5.56 (23:30) 0 0 0 0 0
01-07-2020 29.6 (18:20) 16.6 (00:00) 23.1 12.78 (12:40) 9.44 (04:50) 0 0 0 0 0
30-06-2020 26.9 (11:50) 14 (00:00) 20.4 8.06 (09:20) 5 (18:20) 0 0 0 0 0
29-06-2020 25.1 (13:00) 14.3 (00:00) 19.7 7.78 (18:00) 5 (17:10) 0 0 0 0 0
28-06-2020 26.3 (14:10) 14.4 (00:00) 20.3 6.94 (06:00) 6.11 (06:00) 0 0 0 0 0
27-06-2020 25.1 (18:10) 13.6 (00:00) 19.4 9.17 (06:00) 7.5 (00:20) 0 0 0 0 0
26-06-2020 26.5 (13:50) 12.2 (00:00) 19.3 13.33 (17:10) 8.89 (17:10) 33 0 0 31.2 1.8
25-06-2020 28.2 (13:50) 14.5 (00:00) 21.4 10.28 (18:20) 8.89 (05:40) 0 0 0 0 0
24-06-2020 29.4 (14:00) 15.7 (00:00) 22.5 12.78 (15:20) 7.78 (15:20) 2 0 0 1.8 0.2
23-06-2020 27.3 (15:40) 14.1 (00:00) 20.7 8.33 (08:30) 6.39 (08:30) 0 0 0 0 0
22-06-2020 26.2 (16:50) 11.9 (00:00) 19.1 6.67 (03:10) 4.44 (13:50) 0 0 0 0 0
21-06-2020 26.1 (17:30) 13.6 (00:00) 19.9 8.89 (23:00) 5.28 (18:50) 0 0 0 0 0
20-06-2020 25.9 (16:20) 12.1 (00:00) 19 7.5 (18:40) 4.72 (15:20) 0 0 0 0 0
19-06-2020 21.2 (12:30) 11.8 (00:00) 16.5 7.78 (09:10) 5 (07:10) 0 0 0 0 0
18-06-2020 17.9 (16:50) 9.3 (07:50) 13.6 8.33 (15:30) 5.28 (18:40) 0 0 0 0 0
17-06-2020 17.2 (17:00) 7.7 (00:00) 12.5 7.22 (17:10) 4.17 (19:20) 0 0 0 0 0
16-06-2020 18.5 (17:40) 8.5 (00:00) 13.5 12.5 (19:40) 8.61 (19:50) 3.2 0 2.8 0.4 0
15-06-2020 21 (16:10) 10.1 (00:00) 15.6 8.89 (14:00) 4.72 (20:10) 0 0 0 0 0
14-06-2020 20.7 (16:20) 8.4 (00:00) 14.6 10 (12:50) 6.11 (07:50) 0 0 0 0 0
13-06-2020 17.3 (19:00) 6.6 (00:00) 11.9 12.22 (11:50) 7.5 (07:30) 0 0 0 0 0
12-06-2020 16.3 (15:40) 7.2 (00:00) 11.7 13.33 (09:10) 7.22 (09:10) 2.4 2.4 0 0 0
11-06-2020 19.8 (18:30) 9.9 (00:00) 14.8 12.5 (19:00) 6.67 (05:00) 0 0 0 0 0
10-06-2020 16.8 (17:20) 3.7 (00:00) 10.2 9.72 (16:20) 6.11 (16:20) 0 0 0 0 0

Gráficas

Temp. máximas Temp. mínimas Temp. medias Precipitaciones Rachas de viento máximas Velocidades máximas media en intervalos de 10 minutos

Datos horarios

Fecha y hora oficial Temperatura (ºC) Velocidad del viento (km/h) Dirección del viento Racha (km/h) Dirección de racha Precipitación (mm) Presión (hPa) Tendencia (hPa) Humedad (%)
2020-07-09 23:00:00 13.8 12 Noroeste 49 Oeste 5.4 -- -- 94
2020-07-09 22:00:00 15 30 Oeste 49 Oeste 0.8 -- -- 89
2020-07-09 21:00:00 22.1 10 Norte 40 Noroeste 0 -- -- 46
2020-07-09 20:00:00 23.3 15 Este 30 Nordeste 0 -- -- 39
2020-07-09 19:00:00 25.2 16 Este 25 Este 0 -- -- 36
2020-07-09 18:00:00 24.5 11 Norte 20 Noroeste 0 -- -- 40
2020-07-09 17:00:00 24.3 12 Norte 22 Noroeste 0 -- -- 43
2020-07-09 16:00:00 23.8 4 Nordeste 8 Nordeste 0 -- -- 47
2020-07-09 15:00:00 21.9 4 Norte 10 Sudeste 0 -- -- 64
2020-07-09 14:00:00 20.6 6 Sur 23 Sudoeste 0.2 -- -- 64
2020-07-09 13:00:00 20 5 Noroeste 21 Sudoeste 0.2 -- -- 74
2020-07-09 12:00:00 20 9 Sur 15 Sur 0 -- -- 59
2020-07-09 11:00:00 21.6 8 Este 17 Nordeste 0 -- -- 52
2020-07-09 10:00:00 23.5 6 Sudeste 16 Sur 0 -- -- 49
2020-07-09 09:00:00 21.6 6 Sudeste 15 Sur 0 -- -- 57
2020-07-09 08:00:00 19.1 5 Sudeste 17 Sur 0 -- -- 58
2020-07-09 07:00:00 15.9 6 Sur 22 Noroeste 0 -- -- 62
2020-07-09 06:00:00 17.2 4 Oeste 36 Noroeste 0 -- -- 56
2020-07-09 05:00:00 18.7 26 Noroeste 44 Oeste 0 -- -- 53
2020-07-09 04:00:00 17.3 9 Noroeste 28 Noroeste 0 -- -- 58
2020-07-09 03:00:00 20.1 17 Oeste 36 Noroeste 0 -- -- 41
2020-07-09 02:00:00 22.4 9 Oeste 63 Sudoeste 0 -- -- 36
2020-07-09 01:00:00 21.8 19 Sudoeste 49 Sudoeste 0 -- -- 42
2020-07-09 00:00:00 22.7 31 Sudoeste 60 Sur 0 -- -- 40
2020-07-08 23:00:00 20.1 28 Sur 42 Sudoeste 0 -- -- 52
2020-07-08 22:00:00 19.1 24 Sur 33 Sur 0 -- -- 59
2020-07-08 21:00:00 19.2 22 Sur 31 Sur 0 -- -- 69
2020-07-08 20:00:00 18.7 15 Sudoeste 26 Noroeste 0.6 -- -- 80
2020-07-08 19:00:00 22.9 6 Sur 13 Sudoeste 0 -- -- 58
2020-07-08 18:00:00 24 4 Sudeste 15 Sudeste 0 -- -- 53
2020-07-08 17:00:00 24.4 6 Este 22 Nordeste 0 -- -- 48
2020-07-08 16:00:00 27 15 Este 26 Nordeste 0 -- -- 44
2020-07-08 15:00:00 30.7 5 Sudeste 24 Este 0 -- -- 34
2020-07-08 14:00:00 29.2 4 Sudoeste 12 Nordeste 0 -- -- 33
2020-07-08 13:00:00 24.6 9 Norte 32 Noroeste 0 -- -- 47
2020-07-08 12:00:00 23.7 18 Oeste 38 Sudoeste 0 -- -- 52
2020-07-08 11:00:00 24.5 7 Noroeste 17 Noroeste 0 -- -- 53
2020-07-08 10:00:00 23.7 5 Este 21 Sudoeste 0 -- -- 58
2020-07-08 09:00:00 21.5 9 Sudeste 19 Sudoeste 0 -- -- 58
2020-07-08 08:00:00 18.2 4 Oeste 16 Sur 0 -- -- 52
2020-07-08 07:00:00 18.2 8 Sudeste 13 Sudeste 0 -- -- 44
2020-07-08 06:00:00 17.8 9 Sudeste 13 Sudeste 0 -- -- 55
2020-07-08 05:00:00 17.7 3 Sudeste 13 Sudeste 0 -- -- 45
2020-07-08 04:00:00 17.5 6 Sudeste 14 Sudeste 0 -- -- 38
2020-07-08 03:00:00 18.2 4 Sudeste 13 Sur 0 -- -- 42
2020-07-08 02:00:00 18.9 6 Sur 13 Sur 0 -- -- 43
2020-07-08 01:00:00 19.6 8 Sur 13 Sudeste 0 -- -- 37
2020-07-08 00:00:00 19 4 Sudeste 12 Sur 0 -- -- 39
2020-07-07 23:00:00 19.4 4 Sur 9 Sur 0 -- -- 38
2020-07-07 22:00:00 20.7 4 Sur 8 Sudeste 0 -- -- 37
2020-07-07 21:00:00 22.4 5 Este 15 Este 0 -- -- 33
2020-07-07 20:00:00 24.3 12 Este 22 Este 0 -- -- 31
2020-07-07 19:00:00 25.8 14 Este 20 Este 0 -- -- 33
2020-07-07 18:00:00 26.3 13 Este 27 Nordeste 0 -- -- 33
2020-07-07 17:00:00 26.4 14 Este 29 Nordeste 0 -- -- 37
2020-07-07 16:00:00 26.8 12 Nordeste 23 Nordeste 0 -- -- 34
2020-07-07 15:00:00 27.2 12 Norte 27 Noroeste 0 -- -- 34
2020-07-07 14:00:00 26.4 16 Noroeste 27 Noroeste 0 -- -- 39
2020-07-07 13:00:00 24.7 13 Norte 25 Norte 0 -- -- 35
2020-07-07 12:00:00 23.9 19 Norte 27 Norte 0 -- -- 34
2020-07-07 11:00:00 22.1 15 Norte 20 Norte 0 -- -- 39
2020-07-07 10:00:00 20.9 7 Norte 13 Norte 0 -- -- 49
2020-07-07 09:00:00 18.2 7 Norte 12 Norte 0 -- -- 58
2020-07-07 08:00:00 16.4 6 Norte 8 Norte 0 -- -- 57
2020-07-07 07:00:00 14.1 0 Calma 14 Oeste 0 -- -- 66
2020-07-07 06:00:00 14.9 0 Calma 5 Sudoeste 0 -- -- 52
2020-07-07 05:00:00 13.4 3 Sur 11 Noroeste 0 -- -- 57
2020-07-07 04:00:00 13.9 2 Noroeste 6 Noroeste 0 -- -- 51
2020-07-07 03:00:00 14.5 2 Oeste 6 Noroeste 0 -- -- 38
2020-07-07 02:00:00 14.9 3 Noroeste 8 Noroeste 0 -- -- 33
2020-07-07 01:00:00 15.4 5 Noroeste 9 Noroeste 0 -- -- 31
2020-07-07 00:00:00 14.7 4 Noroeste 17 Noroeste 0 -- -- 46
2020-07-06 23:00:00 16 12 Norte 26 Noroeste 0 -- -- 50
2020-07-06 22:00:00 16.3 11 Noroeste 23 Noroeste 0 -- -- 60
2020-07-06 21:00:00 17.5 11 Noroeste 32 Norte 0 -- -- 60
2020-07-06 20:00:00 19.5 23 Norte 36 Norte 0 -- -- 59
2020-07-06 19:00:00 21.6 21 Norte 32 Norte 0 -- -- 55
2020-07-06 18:00:00 22.6 20 Norte 32 Norte 0 -- -- 54
2020-07-06 17:00:00 22.9 19 Norte 35 Norte 0 -- -- 55
2020-07-06 16:00:00 23.2 19 Norte 28 Norte 0 -- -- 58
2020-07-06 15:00:00 23.2 15 Norte 26 Norte 0 -- -- 57
2020-07-06 14:00:00 23.1 12 Nordeste 23 Nordeste 0 -- -- 57
2020-07-06 13:00:00 22.5 10 Norte 20 Norte 0 -- -- 58
2020-07-06 12:00:00 21.6 9 Norte 18 Norte 0 -- -- 63
2020-07-06 11:00:00 20.5 7 Nordeste 15 Norte 0 -- -- 64
2020-07-06 10:00:00 20.2 8 Norte 19 Norte 0 -- -- 64
2020-07-06 09:00:00 19.9 12 Norte 19 Noroeste 0 -- -- 63
2020-07-06 08:00:00 18.3 6 Norte 14 Noroeste 0 -- -- 64
2020-07-06 07:00:00 15.2 5 Norte 13 Noroeste 0 -- -- 67
2020-07-06 06:00:00 16.2 5 Noroeste 15 Noroeste 0 -- -- 63
2020-07-06 05:00:00 17.1 11 Noroeste 17 Noroeste 0 -- -- 64
2020-07-06 04:00:00 16.4 5 Oeste 19 Noroeste 0 -- -- 68
2020-07-06 03:00:00 17 9 Noroeste 19 Norte 0 -- -- 68
2020-07-06 02:00:00 18 14 Noroeste 28 Noroeste 0 -- -- 62
2020-07-06 01:00:00 18.2 10 Noroeste 16 Noroeste 0 -- -- 61
2020-07-06 00:00:00 18.6 9 Noroeste 16 Noroeste 0 -- -- 66
2020-07-05 23:00:00 20.5 8 Nordeste 13 Norte 0 -- -- 54
2020-07-05 22:00:00 21.2 6 Norte 14 Norte 0 -- -- 51
2020-07-05 21:00:00 23.3 8 Nordeste 19 Nordeste 0 -- -- 44
2020-07-05 20:00:00 25.1 11 Nordeste 21 Este 0 -- -- 35
2020-07-05 19:00:00 26.1 13 Nordeste 22 Nordeste 0 -- -- 38
2020-07-05 18:00:00 26.4 12 Nordeste 23 Nordeste 0 -- -- 38
2020-07-05 17:00:00 26.3 11 Nordeste 23 Este 0 -- -- 40
2020-07-05 16:00:00 26.1 12 Nordeste 23 Norte 0 -- -- 40
2020-07-05 15:00:00 26.9 6 Norte 19 Noroeste 0 -- -- 36
2020-07-05 14:00:00 26.2 10 Norte 20 Norte 0 -- -- 32
2020-07-05 13:00:00 25.2 9 Norte 17 Norte 0 -- -- 34
2020-07-05 12:00:00 23.9 9 Norte 14 Noroeste 0 -- -- 45
2020-07-05 11:00:00 22.9 8 Norte 14 Norte 0 -- -- 49
2020-07-05 10:00:00 21.2 8 Noroeste 15 Norte 0 -- -- 50
2020-07-05 09:00:00 20.6 3 Norte 6 Noroeste 0 -- -- 52
2020-07-05 08:00:00 17.1 0 Calma 8 Norte 0 -- -- 62
2020-07-05 07:00:00 13.5 0 Calma 8 Oeste 0 -- -- 67
2020-07-05 06:00:00 14.7 9 Noroeste 20 Noroeste 0 -- -- 63
2020-07-05 05:00:00 15.2 13 Noroeste 20 Noroeste 0 -- -- 62
2020-07-05 04:00:00 14.6 7 Noroeste 10 Noroeste 0 -- -- 63
2020-07-05 03:00:00 15.3 3 Noroeste 15 Norte 0 -- -- 58
2020-07-05 02:00:00 15.9 12 Noroeste 23 Norte 0 -- -- 57
2020-07-05 01:00:00 15.9 9 Norte 17 Noroeste 0 -- -- 57
2020-07-05 00:00:00 15.9 6 Noroeste 12 Norte 0 -- -- 52
2020-07-04 23:00:00 17 5 Noroeste 10 Noroeste 0 -- -- 46
2020-07-04 22:00:00 18.3 6 Noroeste 14 Noroeste 0 -- -- 40
2020-07-04 21:00:00 20 12 Norte 19 Norte 0 -- -- 37
2020-07-04 20:00:00 22.2 13 Norte 21 Norte 0 -- -- 32
2020-07-04 19:00:00 23.6 13 Norte 26 Nordeste 0 -- -- 31
2020-07-04 18:00:00 24.2 14 Norte 24 Norte 0 -- -- 31
2020-07-04 17:00:00 23.7 15 Nordeste 23 Nordeste 0 -- -- 36
2020-07-04 16:00:00 24.5 12 Noroeste 23 Noroeste 0 -- -- 21
2020-07-04 15:00:00 24 12 Norte 26 Noroeste 0 -- -- 27
2020-07-04 14:00:00 23.1 17 Norte 40 Norte 0 -- -- 32
2020-07-04 13:00:00 21.9 18 Norte 27 Norte 0 -- -- 32
2020-07-04 12:00:00 20.4 15 Norte 25 Norte 0 -- -- 39
2020-07-04 11:00:00 19.3 14 Norte 21 Norte 0 -- -- 43
2020-07-04 10:00:00 19 9 Noroeste 17 Noroeste 0 -- -- 48
2020-07-04 09:00:00 16.2 4 Este 7 Nordeste 0 -- -- 69
2020-07-04 08:00:00 14.9 3 Noroeste 8 Oeste 0 -- -- 72
2020-07-04 07:00:00 12.6 2 Sudoeste 4 Oeste 0 -- -- 73
2020-07-04 06:00:00 12.3 2 Noroeste 3 Sudoeste 0 -- -- 72
2020-07-04 05:00:00 11.8 2 Noroeste 5 Sudoeste 0 -- -- 73
2020-07-04 04:00:00 10.9 0 Calma 11 Sudoeste 0 -- -- 79
2020-07-04 03:00:00 10.6 7 Sudoeste 13 Oeste 0 -- -- 83
2020-07-04 02:00:00 10.5 2 Sudeste 9 Noroeste 0 -- -- 81
2020-07-04 01:00:00 10.6 5 Oeste 9 Sudoeste 0 -- -- 80
2020-07-04 00:00:00 11.1 3 Oeste 8 Oeste 0 -- -- 78
2020-07-03 23:00:00 12.5 3 Oeste 7 Oeste 0 -- -- 73
2020-07-03 22:00:00 13.5 5 Norte 12 Norte 0 -- -- 71
2020-07-03 21:00:00 16.2 5 Norte 22 Nordeste 0 -- -- 63
2020-07-03 20:00:00 18.2 14 Norte 25 Nordeste 0 -- -- 53
2020-07-03 19:00:00 19.3 15 Norte 26 Norte 0 -- -- 52
2020-07-03 18:00:00 20.4 14 Norte 24 Norte 0 -- -- 54
2020-07-03 17:00:00 20.9 14 Norte 26 Norte 0 -- -- 53
2020-07-03 16:00:00 21.3 13 Norte 21 Norte 0 -- -- 52
2020-07-03 15:00:00 20.6 12 Norte 21 Norte 0 -- -- 57
2020-07-03 14:00:00 19.7 9 Norte 25 Norte 0 -- -- 61
2020-07-03 13:00:00 18.2 8 Nordeste 19 Norte 0 -- -- 63
2020-07-03 12:00:00 16.5 8 Norte 20 Nordeste 0 -- -- 67
2020-07-03 11:00:00 14.8 10 Norte 27 Norte 0 -- -- 67
2020-07-03 10:00:00 12.8 16 Norte 26 Norte 0 -- -- 73
2020-07-03 09:00:00 12 12 Norte 25 Noroeste 0 -- -- 76
2020-07-03 08:00:00 11.1 10 Norte 23 Norte 0 -- -- 78
2020-07-03 07:00:00 10.8 14 Norte 23 Norte 0 -- -- 80
2020-07-03 06:00:00 10.9 15 Noroeste 26 Noroeste 0 -- -- 81
2020-07-03 05:00:00 10.7 13 Norte 26 Norte 0 -- -- 85
2020-07-03 04:00:00 10.6 13 Norte 25 Noroeste 0 -- -- 85
2020-07-03 03:00:00 10.7 16 Noroeste 28 Noroeste 0 -- -- 89
2020-07-03 02:00:00 10.4 12 Norte 22 Noroeste 0 -- -- 90
2020-07-03 01:00:00 10.6 15 Noroeste 30 Noroeste 0 -- -- 91
2020-07-03 00:00:00 11 17 Noroeste 30 Noroeste 0 -- -- 92
2020-07-02 23:00:00 12.1 15 Norte 27 Noroeste 0 -- -- 88
2020-07-02 22:00:00 13.5 14 Norte 27 Norte 0 -- -- 86
2020-07-02 21:00:00 16.1 18 Norte 27 Norte 0 -- -- 79
2020-07-02 20:00:00 19 17 Nordeste 27 Nordeste 0 -- -- 68
2020-07-02 19:00:00 21.6 16 Nordeste 32 Nordeste 0 -- -- 62
2020-07-02 18:00:00 22.5 16 Nordeste 26 Nordeste 0 -- -- 61
2020-07-02 17:00:00 21.8 15 Nordeste 26 Este 0 -- -- 61
2020-07-02 16:00:00 23.5 14 Este 26 Este 0 -- -- 60
2020-07-02 15:00:00 21 13 Nordeste 28 Nordeste 0 -- -- 68
2020-07-02 14:00:00 22.7 14 Este 24 Este 0 -- -- 65
2020-07-02 13:00:00 22.2 11 Este 19 Este 0 -- -- 66
2020-07-02 12:00:00 21.9 8 Este 17 Este 0 -- -- 71
2020-07-02 11:00:00 20.9 9 Este 16 Sudeste 0 -- -- 73
2020-07-02 10:00:00 19.7 10 Sudeste 16 Sudeste 0 -- -- 78
2020-07-02 09:00:00 17.7 5 Este 15 Sudeste 0 -- -- 84
2020-07-02 08:00:00 16.2 6 Este 14 Sudeste 0 -- -- 90
2020-07-02 07:00:00 14.8 5 Sur 13 Sudeste 0 -- -- 92
2020-07-02 06:00:00 14.4 5 Sudeste 10 Sudoeste 0 -- -- 91
2020-07-02 05:00:00 16 5 Oeste 10 Sur 0 -- -- 87
2020-07-02 04:00:00 16.9 5 Sur 9 Sudeste 0 -- -- 82
2020-07-02 03:00:00 16.1 3 Sudeste 10 Sur 0 -- -- 85
2020-07-02 02:00:00 17.5 5 Sur 12 Sur 0 -- -- 80
2020-07-02 01:00:00 17.5 5 Sudeste 13 Sur 0 -- -- 84
2020-07-02 00:00:00 18.7 4 Sudeste 8 Sudeste 0 -- -- 76
2020-07-01 23:00:00 19.5 3 Sur 8 Oeste 0 -- -- 71
2020-07-01 22:00:00 20.3 3 Nordeste 14 Norte 0 -- -- 75
2020-07-01 21:00:00 22.1 9 Norte 24 Norte 0 -- -- 69
2020-07-01 20:00:00 24.3 14 Norte 28 Norte 0 -- -- 59
2020-07-01 19:00:00 28.9 12 Noroeste 31 Noroeste 0 -- -- 30
2020-07-01 18:00:00 29 10 Noroeste 40 Noroeste 0 -- -- 31
2020-07-01 17:00:00 29 15 Noroeste 30 Oeste 0 -- -- 29
2020-07-01 16:00:00 28.8 18 Noroeste 35 Noroeste 0 -- -- 32
2020-07-01 15:00:00 28.1 18 Noroeste 42 Oeste 0 -- -- 35
2020-07-01 14:00:00 27.9 17 Oeste 36 Oeste 0 -- -- 31
2020-07-01 13:00:00 27.1 21 Oeste 46 Oeste 0 -- -- 33
2020-07-01 12:00:00 27.6 10 Noroeste 26 Oeste 0 -- -- 46
2020-07-01 11:00:00 25.9 13 Oeste 31 Noroeste 0 -- -- 46
2020-07-01 10:00:00 24.3 17 Oeste 31 Oeste 0 -- -- 51
2020-07-01 09:00:00 22.6 21 Sudoeste 31 Oeste 0 -- -- 54
2020-07-01 08:00:00 20.1 17 Sudoeste 27 Sudoeste 0 -- -- 64
2020-07-01 07:00:00 16.9 19 Sudoeste 30 Sudoeste 0 -- -- 71
2020-07-01 06:00:00 17 25 Sudoeste 36 Sudoeste 0 -- -- 70
2020-07-01 05:00:00 17 34 Sudoeste 38 Sudoeste 0 -- -- 72
2020-07-01 04:00:00 17.6 32 Sudoeste 38 Sudoeste 0 -- -- 73
2020-07-01 03:00:00 19.4 27 Sudoeste 35 Sudoeste 0 -- -- 67
2020-07-01 02:00:00 19.9 23 Sur 33 Sur 0 -- -- 68
2020-07-01 01:00:00 20 18 Sur 28 Sur 0 -- -- 69
2020-07-01 00:00:00 18.9 9 Sur 12 Sur 0 -- -- 89
2020-06-30 23:00:00 20.4 3 Sudoeste 10 Oeste 0 -- -- 81
2020-06-30 22:00:00 21.2 6 Sudeste 10 Sur 0 -- -- 76
2020-06-30 21:00:00 22.3 5 Sur 18 Este 0 -- -- 75
2020-06-30 20:00:00 23.6 11 Sudeste 23 Nordeste 0 -- -- 69
2020-06-30 19:00:00 25.2 17 Este 29 Este 0 -- -- 63
2020-06-30 18:00:00 25.9 16 Este 28 Sudeste 0 -- -- 58
2020-06-30 17:00:00 26 16 Este 28 Sudeste 0 -- -- 59
2020-06-30 16:00:00 25.5 14 Este 24 Este 0 -- -- 59
2020-06-30 15:00:00 25.1 15 Este 24 Este 0 -- -- 60
2020-06-30 14:00:00 25.1 12 Este 21 Sudeste 0 -- -- 60
2020-06-30 13:00:00 24.4 12 Este 21 Sudeste 0 -- -- 63
2020-06-30 12:00:00 26.1 10 Sudeste 17 Este 0 -- -- 55
2020-06-30 11:00:00 25.3 7 Sudeste 23 Sudoeste 0 -- -- 53
2020-06-30 10:00:00 22.7 13 Sur 29 Sudoeste 0 -- -- 55
2020-06-30 09:00:00 20.7 16 Sudoeste 25 Sudoeste 0 -- -- 61
2020-06-30 08:00:00 16.1 7 Este 18 Sur 0 -- -- 87
2020-06-30 07:00:00 14.9 5 Sudeste 14 Sudeste 0 -- -- 92
2020-06-30 06:00:00 15.1 7 Sudeste 11 Sudeste 0 -- -- 89
2020-06-30 05:00:00 15 5 Sur 8 Sur 0 -- -- 86
2020-06-30 04:00:00 15.4 5 Sur 9 Sur 0 -- -- 86
2020-06-30 03:00:00 15.6 5 Sur 8 Sur 0 -- -- 88
2020-06-30 02:00:00 16.2 5 Sur 12 Sur 0 -- -- 85
2020-06-30 01:00:00 17.2 8 Sur 13 Sur 0 -- -- 82
2020-06-30 00:00:00 18.1 8 Sur 12 Sur 0 -- -- 79
2020-06-29 23:00:00 18.5 3 Sur 9 Este 0 -- -- 79
2020-06-29 22:00:00 20 7 Este 16 Este 0 -- -- 72
2020-06-29 21:00:00 22.3 9 Este 22 Este 0 -- -- 65
2020-06-29 20:00:00 23.7 10 Este 22 Nordeste 0 -- -- 62
2020-06-29 19:00:00 24.6 15 Este 25 Nordeste 0 -- -- 59
2020-06-29 18:00:00 24.7 15 Este 28 Nordeste 0 -- -- 58
2020-06-29 17:00:00 24.9 14 Nordeste 26 Este 0 -- -- 60
2020-06-29 16:00:00 25.1 13 Este 24 Este 0 -- -- 60
2020-06-29 15:00:00 24.5 13 Este 22 Nordeste 0 -- -- 63
2020-06-29 14:00:00 24.7 10 Nordeste 22 Este 0 -- -- 62
2020-06-29 13:00:00 25.1 6 Este 16 Este 0 -- -- 61
2020-06-29 12:00:00 24.1 5 Nordeste 17 Sudeste 0 -- -- 66
2020-06-29 11:00:00 23.1 7 Este 12 Sudeste 0 -- -- 65
2020-06-29 10:00:00 20.7 5 Sudeste 10 Este 0 -- -- 71
2020-06-29 09:00:00 18.9 3 Nordeste 5 Nordeste 0 -- -- 77
2020-06-29 08:00:00 17.4 2 Este 6 Nordeste 0 -- -- 82
2020-06-29 07:00:00 15.1 4 Sur 8 Sudeste 0 -- -- 87
2020-06-29 06:00:00 14.8 4 Sur 6 Sur 0 -- -- 87
2020-06-29 05:00:00 14.7 4 Sudoeste 6 Noroeste 0 -- -- 87
2020-06-29 04:00:00 14.9 5 Noroeste 9 Noroeste 0 -- -- 85
2020-06-29 03:00:00 15.6 3 Noroeste 10 Noroeste 0 -- -- 83
2020-06-29 02:00:00 16.5 6 Noroeste 10 Noroeste 0 -- -- 82
2020-06-29 01:00:00 17.8 5 Oeste 12 Nordeste 0 -- -- 79
2020-06-29 00:00:00 19.6 5 Sur 6 Sudoeste 0 -- -- 72
2020-06-28 23:00:00 19.3 0 Calma 12 Sur 0 -- -- 73
2020-06-28 22:00:00 20.8 9 Sur 13 Sur 0 -- -- 69
2020-06-28 21:00:00 22.6 8 Sudeste 20 Este 0 -- -- 64
2020-06-28 20:00:00 24 12 Este 22 Este 0 -- -- 59
2020-06-28 19:00:00 24.9 12 Este 22 Sudeste 0 -- -- 59
2020-06-28 18:00:00 25.1 12 Este 23 Este 0 -- -- 56
2020-06-28 17:00:00 25.1 14 Este 23 Nordeste 0 -- -- 59
2020-06-28 16:00:00 24.6 12 Nordeste 23 Nordeste 0 -- -- 62
2020-06-28 15:00:00 24.7 6 Este 24 Este 0 -- -- 57
2020-06-28 14:00:00 26 13 Noroeste 19 Norte 0 -- -- 44
2020-06-28 13:00:00 25.2 8 Norte 22 Sudoeste 0 -- -- 51
2020-06-28 12:00:00 24.5 8 Oeste 17 Oeste 0 -- -- 53
2020-06-28 11:00:00 22.8 9 Sudoeste 15 Sudoeste 0 -- -- 55
2020-06-28 10:00:00 22 2 Sur 15 Oeste 0 -- -- 53
2020-06-28 09:00:00 20.3 4 Nordeste 12 Sudoeste 0 -- -- 58
2020-06-28 08:00:00 17.7 11 Oeste 16 Sudoeste 0 -- -- 64
2020-06-28 07:00:00 14.4 8 Sudoeste 24 Sudoeste 0 -- -- 73
2020-06-28 06:00:00 15.7 22 Sudoeste 25 Sudoeste 0 -- -- 68
2020-06-28 05:00:00 15.2 12 Sudoeste 23 Sudoeste 0 -- -- 72
2020-06-28 04:00:00 15.4 11 Sudoeste 18 Sudoeste 0 -- -- 75
2020-06-28 03:00:00 16.4 17 Sudoeste 23 Sudoeste 0 -- -- 75
2020-06-28 02:00:00 17.3 11 Sudoeste 17 Sudoeste 0 -- -- 74
2020-06-28 01:00:00 18.3 7 Sur 10 Sur 0 -- -- 73
2020-06-28 00:00:00 17.9 8 Sur 11 Sur 0 -- -- 68
2020-06-27 23:00:00 18.4 7 Sur 10 Sudeste 0 -- -- 67
2020-06-27 22:00:00 19 8 Sur 12 Sur 0 -- -- 68
2020-06-27 21:00:00 20.7 6 Sudeste 18 Este 0 -- -- 65
2020-06-27 20:00:00 23 11 Este 20 Sudeste 0 -- -- 52
2020-06-27 19:00:00 24.1 13 Nordeste 21 Nordeste 0 -- -- 50
2020-06-27 18:00:00 25 9 Norte 15 Norte 0 -- -- 45
2020-06-27 17:00:00 24.1 8 Norte 14 Norte 0 -- -- 48
2020-06-27 16:00:00 24.3 6 Nordeste 24 Nordeste 0 -- -- 47
2020-06-27 15:00:00 23.5 12 Noroeste 22 Noroeste 0 -- -- 51
2020-06-27 14:00:00 22.7 11 Norte 21 Norte 0 -- -- 50
2020-06-27 13:00:00 21.7 17 Norte 26 Norte 0 -- -- 59
2020-06-27 12:00:00 20.6 19 Norte 24 Norte 0 -- -- 59
2020-06-27 11:00:00 18.6 16 Noroeste 27 Noroeste 0 -- -- 67
2020-06-27 10:00:00 18.1 15 Norte 26 Noroeste 0 -- -- 64
2020-06-27 09:00:00 17.4 16 Norte 22 Norte 0 -- -- 64
2020-06-27 08:00:00 16 11 Noroeste 28 Noroeste 0 -- -- 67
2020-06-27 07:00:00 15.4 16 Oeste 30 Noroeste 0 -- -- 65
2020-06-27 06:00:00 15.7 23 Oeste 33 Oeste 0 -- -- 61
2020-06-27 05:00:00 14.7 13 Oeste 23 Oeste 0 -- -- 67
2020-06-27 04:00:00 15.6 13 Oeste 24 Sudoeste 0 -- -- 68
2020-06-27 03:00:00 14.6 23 Sudoeste 26 Sudoeste 0 -- -- 74
2020-06-27 02:00:00 14.4 22 Sudoeste 28 Sudoeste 0 -- -- 78
2020-06-27 01:00:00 15.4 26 Sudoeste 31 Sudoeste 0 -- -- 75
2020-06-27 00:00:00 16.5 18 Sudoeste 25 Sudoeste 0.2 -- -- 72
2020-06-26 23:00:00 15.1 8 Sur 15 Sudoeste 0 -- -- 83
2020-06-26 22:00:00 14.6 3 Nordeste 8 Sudoeste 0 -- -- 89
2020-06-26 21:00:00 16.2 6 Sudeste 9 Sur 0 -- -- 75
2020-06-26 20:00:00 15.6 7 Sur 14 Sudeste 0 -- -- 80
2020-06-26 19:00:00 17.1 11 Nordeste 21 Norte 1.6 -- -- 80
2020-06-26 18:00:00 13.5 11 Sudoeste 48 Sudeste 8.6 -- -- 94
2020-06-26 17:00:00 12.5 14 Sur 40 Sudoeste 22.4 -- -- 91
2020-06-26 16:00:00 20.8 9 Noroeste 24 Noroeste 0.2 -- -- 65
2020-06-26 15:00:00 23.7 8 Sudoeste 24 Sudoeste 0 -- -- 47
2020-06-26 14:00:00 26.2 9 Sudoeste 30 Sudoeste 0 -- -- 41
2020-06-26 13:00:00 25.6 12 Sur 28 Sudoeste 0 -- -- 45
2020-06-26 12:00:00 24.8 10 Sur 23 Sur 0 -- -- 44
2020-06-26 11:00:00 22.7 17 Sudoeste 33 Sudoeste 0 -- -- 45
2020-06-26 10:00:00 21.1 22 Sudoeste 36 Sudoeste 0 -- -- 47
2020-06-26 09:00:00 19.3 27 Sudoeste 38 Sudoeste 0 -- -- 46
2020-06-26 08:00:00 17.2 20 Sudoeste 28 Sudoeste 0 -- -- 48
2020-06-26 07:00:00 15.3 20 Sudoeste 30 Sur 0 -- -- 54
2020-06-26 06:00:00 14.9 22 Sudoeste 31 Sudoeste 0 -- -- 57
2020-06-26 05:00:00 14.9 18 Sudoeste 31 Sudoeste 0 -- -- 63
2020-06-26 04:00:00 15.2 21 Sur 31 Sur 0 -- -- 66
2020-06-26 03:00:00 14.5 6 Sudeste 9 Sur 0 -- -- 85
2020-06-26 02:00:00 15.4 5 Sudeste 12 Sudeste 0 -- -- 84
2020-06-26 01:00:00 15.5 3 Este 12 Sudeste 0 -- -- 85
2020-06-26 00:00:00 15.9 4 Noroeste 17 Noroeste 0 -- -- 83
2020-06-25 23:00:00 17.1 4 Sur 16 Sudoeste 0 -- -- 80
2020-06-25 22:00:00 16.8 4 Sudoeste 12 Este 0 -- -- 77
2020-06-25 21:00:00 18.3 7 Sudeste 14 Sudeste 0 -- -- 72
2020-06-25 20:00:00 18.2 6 Sudoeste 18 Sudeste 0 -- -- 68
2020-06-25 19:00:00 18 8 Este 37 Nordeste 0 -- -- 67
2020-06-25 18:00:00 20.6 24 Norte 35 Norte 0 -- -- 66
2020-06-25 17:00:00 24.4 22 Sudeste 32 Sudeste 0 -- -- 59
2020-06-25 16:00:00 24.9 15 Sudeste 29 Sudeste 0 -- -- 56
2020-06-25 15:00:00 27.1 12 Este 30 Sudeste 0 -- -- 53
2020-06-25 14:00:00 28.1 13 Sur 26 Sudoeste 0 -- -- 36
2020-06-25 13:00:00 28.1 6 Sudoeste 21 Sur 0 -- -- 41
2020-06-25 12:00:00 26.3 11 Sur 23 Sur 0 -- -- 45
2020-06-25 11:00:00 24.6 15 Sudoeste 28 Sudoeste 0 -- -- 50
2020-06-25 10:00:00 22.7 21 Sudoeste 28 Sudoeste 0 -- -- 54
2020-06-25 09:00:00 20.4 23 Sudoeste 32 Sudoeste 0 -- -- 59
2020-06-25 08:00:00 17.8 24 Sudoeste 32 Sudoeste 0 -- -- 66
2020-06-25 07:00:00 15.7 28 Sudoeste 35 Sudoeste 0 -- -- 76
2020-06-25 06:00:00 15.7 31 Sudoeste 36 Sudoeste 0 -- -- 78
2020-06-25 05:00:00 15.3 30 Sudoeste 35 Sudoeste 0 -- -- 80
2020-06-25 04:00:00 16.3 24 Sudoeste 28 Sudoeste 0 -- -- 67
2020-06-25 03:00:00 16 5 Sudoeste 14 Sudeste 0 -- -- 65
2020-06-25 02:00:00 15.8 8 Sur 12 Sudeste 0 -- -- 73
2020-06-25 01:00:00 15.9 9 Sudeste 14 Sudeste 0 -- -- 73
2020-06-25 00:00:00 15.9 7 Sur 12 Sur 0 -- -- 74
2020-06-24 23:00:00 17.4 8 Sudeste 32 Este 0 -- -- 69
2020-06-24 22:00:00 18.3 19 Sudoeste 22 Sudoeste 0.2 -- -- 58
2020-06-24 21:00:00 19.3 12 Sur 23 Sur 0 -- -- 54
2020-06-24 20:00:00 20.1 12 Sur 31 Sur 0 -- -- 61
2020-06-24 19:00:00 17.4 19 Sudeste 34 Sudeste 0 -- -- 68
2020-06-24 18:00:00 16.2 17 Sudeste 34 Sur 0.2 -- -- 80
2020-06-24 17:00:00 16.8 8 Norte 35 Noroeste 0 -- -- 76
2020-06-24 16:00:00 16.6 24 Noroeste 46 Norte 1.6 -- -- 81
2020-06-24 15:00:00 23.9 9 Nordeste 35 Noroeste 0 -- -- 54
2020-06-24 14:00:00 29.4 12 Noroeste 25 Oeste 0 -- -- 35
2020-06-24 13:00:00 28.4 8 Este 19 Norte 0 -- -- 40
2020-06-24 12:00:00 26.7 4 Norte 16 Nordeste 0 -- -- 54
2020-06-24 11:00:00 24.9 12 Nordeste 18 Nordeste 0 -- -- 56
2020-06-24 10:00:00 24.9 11 Sudoeste 14 Sudoeste 0 -- -- 53
2020-06-24 09:00:00 23.4 3 Este 10 Nordeste 0 -- -- 63
2020-06-24 08:00:00 19.9 5 Oeste 27 Oeste 0 -- -- 68
2020-06-24 07:00:00 17.4 23 Sudoeste 35 Sudoeste 0 -- -- 74
2020-06-24 06:00:00 16.1 27 Sudoeste 33 Sudoeste 0 -- -- 81
2020-06-24 05:00:00 16.7 10 Sur 28 Sudoeste 0 -- -- 78
2020-06-24 04:00:00 17.4 3 Sur 13 Sudoeste 0 -- -- 75
2020-06-24 03:00:00 18.2 6 Sudoeste 30 Sudoeste 0 -- -- 73
2020-06-24 02:00:00 18.6 22 Sudoeste 31 Sudoeste 0 -- -- 72
2020-06-24 01:00:00 20 18 Sudoeste 23 Sudoeste 0 -- -- 65
2020-06-24 00:00:00 19.6 6 Sur 20 Sudoeste 0 -- -- 62
2020-06-23 23:00:00 20.9 12 Sur 17 Sur 0 -- -- 59
2020-06-23 22:00:00 21.6 8 Sur 19 Sur 0 -- -- 60
2020-06-23 21:00:00 23.4 8 Sur 27 Sudeste 0 -- -- 55
2020-06-23 20:00:00 25.6 18 Sudeste 28 Sudeste 0 -- -- 47
2020-06-23 19:00:00 26.4 14 Nordeste 26 Este 0 -- -- 43
2020-06-23 18:00:00 26.6 14 Este 26 Este 0 -- -- 45
2020-06-23 17:00:00 27 13 Este 29 Este 0 -- -- 47
2020-06-23 16:00:00 27 15 Nordeste 29 Este 0 -- -- 49
2020-06-23 15:00:00 26.8 14 Este 28 Este 0 -- -- 48
2020-06-23 14:00:00 26.5 13 Este 24 Este 0 -- -- 50
2020-06-23 13:00:00 25.9 10 Nordeste 17 Nordeste 0 -- -- 50
2020-06-23 12:00:00 25.9 8 Sudoeste 18 Sudoeste 0 -- -- 47
2020-06-23 11:00:00 24.7 9 Oeste 20 Sudoeste 0 -- -- 53
2020-06-23 10:00:00 22.5 9 Sudoeste 28 Sudoeste 0 -- -- 57
2020-06-23 09:00:00 20.5 22 Sudoeste 30 Sudoeste 0 -- -- 66
2020-06-23 08:00:00 19 18 Sudoeste 24 Sudoeste 0 -- -- 67
2020-06-23 07:00:00 15.1 9 Sudeste 14 Sudeste 0 -- -- 77
2020-06-23 06:00:00 15.1 8 Sur 11 Sudeste 0 -- -- 79
2020-06-23 05:00:00 15.2 10 Sur 15 Sur 0 -- -- 67
2020-06-23 04:00:00 14.1 2 Nordeste 10 Sur 0 -- -- 66
2020-06-23 03:00:00 15.4 0 Calma 10 Sur 0 -- -- 58
2020-06-23 02:00:00 15.9 8 Sur 10 Sur 0 -- -- 62
2020-06-23 01:00:00 16.7 6 Sur 8 Sur 0 -- -- 57
2020-06-23 00:00:00 17.2 5 Sur 8 Sur 0 -- -- 58
2020-06-22 23:00:00 18.2 2 Norte 8 Norte 0 -- -- 56
2020-06-22 22:00:00 19.3 4 Norte 10 Nordeste 0 -- -- 55
2020-06-22 21:00:00 21 9 Nordeste 21 Nordeste 0 -- -- 49
2020-06-22 20:00:00 23 13 Nordeste 20 Nordeste 0 -- -- 43
2020-06-22 19:00:00 24.4 13 Nordeste 24 Nordeste 0 -- -- 45
2020-06-22 18:00:00 25.1 13 Nordeste 21 Este 0 -- -- 46
2020-06-22 17:00:00 25.7 10 Nordeste 20 Norte 0 -- -- 46
2020-06-22 16:00:00 25.8 9 Norte 20 Oeste 0 -- -- 44
2020-06-22 15:00:00 25 9 Norte 22 Norte 0 -- -- 45
2020-06-22 14:00:00 24.1 14 Norte 23 Norte 0 -- -- 47
2020-06-22 13:00:00 22.8 14 Norte 22 Norte 0 -- -- 54
2020-06-22 12:00:00 22.2 9 Noroeste 16 Noroeste 0 -- -- 51
2020-06-22 11:00:00 20.2 11 Norte 17 Noroeste 0 -- -- 64
2020-06-22 10:00:00 18.6 7 Norte 15 Noroeste 0 -- -- 64
2020-06-22 09:00:00 17.1 10 Norte 17 Noroeste 0 -- -- 67
2020-06-22 08:00:00 15.4 9 Noroeste 15 Noroeste 0 -- -- 72
2020-06-22 07:00:00 12.1 5 Norte 21 Noroeste 0 -- -- 82
2020-06-22 06:00:00 12 9 Noroeste 21 Noroeste 0 -- -- 80
2020-06-22 05:00:00 12.8 13 Noroeste 22 Norte 0 -- -- 76
2020-06-22 04:00:00 12.6 8 Noroeste 24 Norte 0 -- -- 76
2020-06-22 03:00:00 13.5 11 Noroeste 22 Noroeste 0 -- -- 71
2020-06-22 02:00:00 13.5 10 Noroeste 18 Noroeste 0 -- -- 67
2020-06-22 01:00:00 13.6 7 Noroeste 11 Noroeste 0 -- -- 71
2020-06-22 00:00:00 14.6 7 Norte 24 Norte 0 -- -- 68
2020-06-21 23:00:00 16.5 18 Nordeste 32 Norte 0 -- -- 60
2020-06-21 22:00:00 18 16 Nordeste 28 Norte 0 -- -- 57
2020-06-21 21:00:00 19.8 15 Norte 28 Nordeste 0 -- -- 52
2020-06-21 20:00:00 22 18 Norte 27 Norte 0 -- -- 48
2020-06-21 19:00:00 23.8 17 Norte 27 Norte 0 -- -- 45
2020-06-21 18:00:00 25.3 17 Norte 29 Norte 0 -- -- 42
2020-06-21 17:00:00 25.8 16 Norte 31 Noroeste 0 -- -- 33
2020-06-21 16:00:00 24.9 13 Norte 29 Norte 0 -- -- 40
2020-06-21 15:00:00 25.3 11 Noroeste 31 Noroeste 0 -- -- 42
2020-06-21 14:00:00 24.5 15 Norte 27 Norte 0 -- -- 43
2020-06-21 13:00:00 23.7 14 Norte 23 Norte 0 -- -- 51
2020-06-21 12:00:00 22.9 12 Norte 20 Norte 0 -- -- 56
2020-06-21 11:00:00 22.2 9 Norte 16 Norte 0 -- -- 58
2020-06-21 10:00:00 20.7 6 Norte 13 Norte 0 -- -- 60
2020-06-21 09:00:00 19.5 5 Nordeste 9 Nordeste 0 -- -- 57
2020-06-21 08:00:00 17.9 0 Calma 4 Sudeste 0 -- -- 73
2020-06-21 07:00:00 15.3 0 Calma 6 Oeste 0 -- -- 72
2020-06-21 06:00:00 14 2 Sur 7 Sudoeste 0 -- -- 77
2020-06-21 05:00:00 15.3 3 Sudoeste 7 Sudoeste 0 -- -- 74
2020-06-21 04:00:00 15.3 3 Sudoeste 9 Sur 0 -- -- 76
2020-06-21 03:00:00 15.2 6 Sur 8 Sur 0 -- -- 79
2020-06-21 02:00:00 15.6 0 Calma 5 Sur 0 -- -- 79
2020-06-21 01:00:00 16.5 4 Sur 9 Sur 0 -- -- 77
2020-06-21 00:00:00 16.4 6 Sur 9 Sur 0 -- -- 78
2020-06-20 23:00:00 17.7 3 Sur 7 Sudeste 0 -- -- 72
2020-06-20 22:00:00 18.6 0 Calma 6 Nordeste 0 -- -- 69
2020-06-20 21:00:00 20.8 2 Sudeste 19 Noroeste 0 -- -- 62
2020-06-20 20:00:00 24 14 Noroeste 22 Norte 0 -- -- 40
2020-06-20 19:00:00 25.1 9 Norte 27 Norte 0 -- -- 41
2020-06-20 18:00:00 25 12 Norte 27 Norte 0 -- -- 41
2020-06-20 17:00:00 25 14 Norte 23 Noroeste 0 -- -- 43
2020-06-20 16:00:00 24.1 5 Nordeste 24 Norte 0 -- -- 47
2020-06-20 15:00:00 23.6 5 Este 22 Noroeste 0 -- -- 47
2020-06-20 14:00:00 23.5 10 Norte 23 Norte 0 -- -- 46
2020-06-20 13:00:00 21.6 9 Norte 18 Noroeste 0 -- -- 56
2020-06-20 12:00:00 22.1 6 Norte 14 Noroeste 0 -- -- 64
2020-06-20 11:00:00 20.2 7 Norte 15 Norte 0 -- -- 68
2020-06-20 10:00:00 18.8 6 Norte 10 Norte 0 -- -- 73
2020-06-20 09:00:00 17.8 2 Este 11 Sudoeste 0 -- -- 80
2020-06-20 08:00:00 15 5 Sudeste 15 Sudoeste 0 -- -- 93
2020-06-20 07:00:00 12.5 13 Sudoeste 20 Sudoeste 0 -- -- 98
2020-06-20 06:00:00 12.2 2 Sudoeste 9 Sudoeste 0 -- -- 97
2020-06-20 05:00:00 12.5 3 Este 18 Sudoeste 0 -- -- 97
2020-06-20 04:00:00 12.7 6 Sudeste 10 Sudeste 0 -- -- 97
2020-06-20 03:00:00 12.7 3 Este 13 Sur 0 -- -- 95
2020-06-20 02:00:00 13.5 6 Sudoeste 12 Sudoeste 0 -- -- 94
2020-06-20 01:00:00 14.9 4 Sudeste 13 Sur 0 -- -- 87
2020-06-20 00:00:00 15.6 8 Sur 17 Sur 0 -- -- 85
2020-06-19 23:00:00 15.8 7 Sur 13 Sudeste 0 -- -- 86
2020-06-19 22:00:00 16.2 7 Sur 13 Sudeste 0 -- -- 83
2020-06-19 21:00:00 18 8 Sudeste 15 Este 0 -- -- 75
2020-06-19 20:00:00 19.4 11 Sudeste 19 Sudeste 0 -- -- 69
2020-06-19 19:00:00 20.3 9 Sudeste 21 Sudeste 0 -- -- 64
2020-06-19 18:00:00 20.2 12 Sudeste 22 Sudeste 0 -- -- 66
2020-06-19 17:00:00 19.7 12 Sudeste 18 Sudeste 0 -- -- 71
2020-06-19 16:00:00 18.4 15 Sudeste 24 Sudeste 0 -- -- 73
2020-06-19 15:00:00 19.7 7 Nordeste 19 Este 0 -- -- 65
2020-06-19 14:00:00 19.4 12 Nordeste 19 Nordeste 0 -- -- 64
2020-06-19 13:00:00 18.4 13 Este 21 Oeste 0 -- -- 68
2020-06-19 12:00:00 19.9 10 Oeste 19 Oeste 0 -- -- 62
2020-06-19 11:00:00 18.2 12 Sudoeste 21 Sudoeste 0 -- -- 71
2020-06-19 10:00:00 16 14 Sudoeste 28 Sudoeste 0 -- -- 82
2020-06-19 09:00:00 14.4 17 Sudoeste 26 Sudoeste 0 -- -- 87
2020-06-19 08:00:00 14.1 12 Sudoeste 27 Sur 0 -- -- 90
2020-06-19 07:00:00 12.8 15 Sur 25 Sur 0 -- -- 95
2020-06-19 06:00:00 13.2 9 Sur 18 Sudoeste 0 -- -- 93
2020-06-19 05:00:00 12 3 Sur 6 Sudeste 0 -- -- 91
2020-06-19 04:00:00 12.2 3 Sur 8 Sudeste 0 -- -- 88
2020-06-19 03:00:00 11.9 2 Sudoeste 6 Este 0 -- -- 87
2020-06-19 02:00:00 12.5 0 Calma 7 Sudeste 0 -- -- 96
2020-06-19 01:00:00 13.6 0 Calma 5 Sudeste 0 -- -- 93
2020-06-19 00:00:00 13.1 2 Sur 11 Sur 0 -- -- 93
2020-06-18 23:00:00 13.4 6 Sudeste 13 Sudeste 0 -- -- 91
2020-06-18 22:00:00 14.1 6 Sudeste 26 Sudeste 0 -- -- 83
2020-06-18 21:00:00 15.2 12 Este 21 Este 0 -- -- 80
2020-06-18 20:00:00 16.1 15 Este 25 Sudeste 0 -- -- 76
2020-06-18 19:00:00 16.3 15 Este 27 Nordeste 0 -- -- 75
2020-06-18 18:00:00 17 14 Este 26 Sudeste 0 -- -- 72
2020-06-18 17:00:00 17.3 12 Este 24 Nordeste 0 -- -- 71
2020-06-18 16:00:00 17.4 13 Este 30 Nordeste 0 -- -- 73
2020-06-18 15:00:00 15.9 13 Este 29 Este 0 -- -- 77
2020-06-18 14:00:00 15.6 13 Este 24 Este 0 -- -- 77
2020-06-18 13:00:00 16.8 12 Este 22 Este 0 -- -- 73
2020-06-18 12:00:00 15.1 14 Nordeste 22 Nordeste 0 -- -- 77
2020-06-18 11:00:00 15.4 9 Este 18 Este 0 -- -- 78
2020-06-18 10:00:00 14.4 10 Este 22 Sudeste 0 -- -- 76
2020-06-18 09:00:00 12 14 Sudeste 22 Sudeste 0 -- -- 82
2020-06-18 08:00:00 9.6 10 Sudeste 16 Sudeste 0 -- -- 88
2020-06-18 07:00:00 9.5 9 Sudeste 14 Sudeste 0 -- -- 86
2020-06-18 06:00:00 9.9 8 Sudeste 17 Este 0 -- -- 83
2020-06-18 05:00:00 10.1 8 Sudeste 13 Sudeste 0 -- -- 88
2020-06-18 04:00:00 10.5 7 Sudeste 12 Sudeste 0 -- -- 82
2020-06-18 03:00:00 10.2 4 Sudeste 5 Sur 0 -- -- 82
2020-06-18 02:00:00 10.5 4 Sudeste 15 Sudeste 0 -- -- 78
2020-06-18 01:00:00 11.2 5 Sur 9 Este 0 -- -- 78
2020-06-18 00:00:00 11.4 4 Sudeste 12 Este 0 -- -- 81
2020-06-17 23:00:00 12.2 6 Este 14 Nordeste 0 -- -- 74
2020-06-17 22:00:00 12.4 7 Este 13 Este 0 -- -- 76
2020-06-17 21:00:00 13.9 9 Nordeste 19 Este 0 -- -- 68
2020-06-17 20:00:00 15.2 10 Este 23 Este 0 -- -- 64
2020-06-17 19:00:00 16.3 9 Este 18 Este 0 -- -- 63
2020-06-17 18:00:00 15.9 9 Este 26 Nordeste 0 -- -- 66
2020-06-17 17:00:00 17.2 7 Nordeste 17 Este 0 -- -- 56
2020-06-17 16:00:00 14.7 9 Este 20 Nordeste 0 -- -- 67
2020-06-17 15:00:00 14.5 12 Nordeste 24 Nordeste 0 -- -- 68
2020-06-17 14:00:00 14.9 13 Norte 22 Norte 0 -- -- 70
2020-06-17 13:00:00 13.6 8 Nordeste 18 Nordeste 0 -- -- 75
2020-06-17 12:00:00 13.8 5 Norte 12 Norte 0 -- -- 73
2020-06-17 11:00:00 13.2 5 Este 10 Nordeste 0 -- -- 74
2020-06-17 10:00:00 11.4 3 Norte 8 Nordeste 0 -- -- 77
2020-06-17 09:00:00 10.2 4 Noroeste 6 Noroeste 0 -- -- 82
2020-06-17 08:00:00 8.5 4 Norte 9 Noroeste 0 -- -- 90
2020-06-17 07:00:00 7.8 4 Noroeste 12 Norte 0 -- -- 94
2020-06-17 06:00:00 8.2 4 Norte 11 Norte 0 -- -- 95
2020-06-17 05:00:00 8.3 3 Este 9 Nordeste 0 -- -- 97
2020-06-17 04:00:00 8.4 0 Calma 9 Norte 0 -- -- 97
2020-06-17 03:00:00 8.5 5 Norte 11 Noroeste 0 -- -- 96
2020-06-17 02:00:00 8.5 6 Noroeste 14 Norte 0 -- -- 94
2020-06-17 01:00:00 9 7 Noroeste 18 Norte 0 -- -- 88
2020-06-17 00:00:00 9 8 Noroeste 16 Norte 0 -- -- 86
2020-06-16 23:00:00 9.4 6 Noroeste 16 Norte 0 -- -- 91
2020-06-16 22:00:00 10.6 13 Noroeste 28 Norte 0 -- -- 85
2020-06-16 21:00:00 11.3 19 Norte 33 Norte 0 -- -- 87
2020-06-16 20:00:00 13.3 25 Norte 45 Norte 0 -- -- 82
2020-06-16 19:00:00 17.9 21 Noroeste 38 Noroeste 0 -- -- 53
2020-06-16 18:00:00 18.5 21 Noroeste 39 Noroeste 0 -- -- 57
2020-06-16 17:00:00 17.1 23 Noroeste 33 Norte 0 -- -- 63
2020-06-16 16:00:00 17 15 Noroeste 29 Oeste 0 -- -- 69
2020-06-16 15:00:00 16.1 14 Noroeste 34 Noroeste 0 -- -- 73
2020-06-16 14:00:00 13.1 13 Oeste 23 Oeste 0 -- -- 79
2020-06-16 13:00:00 11 12 Oeste 20 Oeste 0.4 -- -- 93
2020-06-16 12:00:00 11 12 Noroeste 18 Norte 0.4 -- -- 94
2020-06-16 11:00:00 9.9 10 Norte 25 Noroeste 1.2 -- -- 97
2020-06-16 10:00:00 10.3 18 Norte 24 Norte 0 -- -- 97
2020-06-16 09:00:00 11.3 4 Norte 8 Noroeste 0.6 -- -- 97
2020-06-16 08:00:00 10.7 6 Norte 24 Noroeste 0.6 -- -- 96
2020-06-16 07:00:00 11 3 Norte 6 Oeste 0 -- -- 91
2020-06-16 06:00:00 11.5 0 Calma 6 Noroeste 0 -- -- 90
2020-06-16 05:00:00 11.9 3 Oeste 4 Oeste 0 -- -- 89
2020-06-16 04:00:00 11.9 2 Sur 8 Sur 0 -- -- 89
2020-06-16 03:00:00 12 6 Sur 8 Sur 0 -- -- 86
2020-06-16 02:00:00 12.1 4 Sudeste 8 Nordeste 0 -- -- 85
2020-06-16 01:00:00 11.8 4 Sudoeste 7 Sudoeste 0 -- -- 85
2020-06-16 00:00:00 12 2 Oeste 6 Noroeste 0 -- -- 84
2020-06-15 23:00:00 12.9 5 Noroeste 14 Norte 0 -- -- 81
2020-06-15 22:00:00 13.9 5 Norte 13 Norte 0 -- -- 78
2020-06-15 21:00:00 15.5 5 Nordeste 27 Nordeste 0 -- -- 71
2020-06-15 20:00:00 18.1 12 Este 17 Nordeste 0 -- -- 57
2020-06-15 19:00:00 19.2 6 Nordeste 14 Noroeste 0 -- -- 56
2020-06-15 18:00:00 19.2 10 Noroeste 19 Norte 0 -- -- 53
2020-06-15 17:00:00 20.6 6 Nordeste 21 Sudeste 0 -- -- 50
2020-06-15 16:00:00 20.2 3 Nordeste 13 Sudeste 0 -- -- 50
2020-06-15 15:00:00 19.2 10 Norte 20 Norte 0 -- -- 53
2020-06-15 14:00:00 19 10 Noroeste 32 Noroeste 0 -- -- 51
2020-06-15 13:00:00 17 10 Norte 16 Noroeste 0 -- -- 58
2020-06-15 12:00:00 17.6 7 Nordeste 17 Norte 0 -- -- 56
2020-06-15 11:00:00 16.3 9 Norte 15 Norte 0 -- -- 63
2020-06-15 10:00:00 14.3 9 Norte 17 Norte 0 -- -- 72
2020-06-15 09:00:00 13.8 11 Norte 14 Noroeste 0 -- -- 69
2020-06-15 08:00:00 12.4 0 Calma 5 Oeste 0 -- -- 80
2020-06-15 07:00:00 11 3 Oeste 5 Oeste 0 -- -- 79
2020-06-15 06:00:00 10.8 3 Noroeste 6 Noroeste 0 -- -- 78
2020-06-15 05:00:00 10.6 3 Sudoeste 9 Sudoeste 0 -- -- 81
2020-06-15 04:00:00 10.3 4 Sudoeste 8 Sudoeste 0 -- -- 82
2020-06-15 03:00:00 10.3 5 Oeste 8 Oeste 0 -- -- 80
2020-06-15 02:00:00 10.5 4 Oeste 16 Noroeste 0 -- -- 77
2020-06-15 01:00:00 12.1 6 Norte 12 Noroeste 0 -- -- 70
2020-06-15 00:00:00 12.5 5 Noroeste 14 Noroeste 0 -- -- 71
2020-06-14 23:00:00 13.2 6 Noroeste 14 Noroeste 0 -- -- 70
2020-06-14 22:00:00 14.1 6 Noroeste 13 Noroeste 0 -- -- 64
2020-06-14 21:00:00 15.6 6 Noroeste 19 Noroeste 0 -- -- 58
2020-06-14 20:00:00 17.4 12 Noroeste 27 Noroeste 0 -- -- 52
2020-06-14 19:00:00 18.7 14 Norte 36 Norte 0 -- -- 50
2020-06-14 18:00:00 19.4 15 Noroeste 30 Noroeste 0 -- -- 48
2020-06-14 17:00:00 20.3 14 Noroeste 32 Norte 0 -- -- 46
2020-06-14 16:00:00 19.8 13 Noroeste 26 Oeste 0 -- -- 48
2020-06-14 15:00:00 19 11 Oeste 29 Noroeste 0 -- -- 50
2020-06-14 14:00:00 18.8 9 Noroeste 30 Noroeste 0 -- -- 50
2020-06-14 13:00:00 17.4 13 Noroeste 36 Oeste 0 -- -- 52
2020-06-14 12:00:00 18 15 Oeste 27 Sudoeste 0 -- -- 52
2020-06-14 11:00:00 16.5 10 Sudoeste 22 Sudoeste 0 -- -- 53
2020-06-14 10:00:00 15.5 10 Sudoeste 19 Sudoeste 0 -- -- 61
2020-06-14 09:00:00 14.5 11 Sudoeste 22 Sudoeste 0 -- -- 61
2020-06-14 08:00:00 11.2 21 Sudoeste 25 Sudoeste 0 -- -- 69
2020-06-14 07:00:00 10.2 18 Sudoeste 23 Sudoeste 0 -- -- 69
2020-06-14 06:00:00 9.2 17 Sudoeste 20 Sudoeste 0 -- -- 74
2020-06-14 05:00:00 9.1 14 Sudoeste 18 Sudoeste 0 -- -- 74
2020-06-14 04:00:00 10.2 0 Calma 8 Sur 0 -- -- 67
2020-06-14 03:00:00 9.6 7 Sur 10 Sur 0 -- -- 70
2020-06-14 02:00:00 9.7 5 Sudoeste 7 Sudoeste 0 -- -- 70
2020-06-14 01:00:00 10.8 5 Oeste 7 Sudoeste 0 -- -- 68
2020-06-14 00:00:00 12 4 Oeste 7 Oeste 0 -- -- 64
2020-06-13 23:00:00 11.8 5 Oeste 9 Oeste 0 -- -- 63
2020-06-13 22:00:00 11.5 7 Oeste 12 Noroeste 0 -- -- 63
2020-06-13 21:00:00 14.1 8 Noroeste 21 Noroeste 0 -- -- 55
2020-06-13 20:00:00 15.4 13 Noroeste 28 Norte 0 -- -- 50
2020-06-13 19:00:00 17.3 17 Noroeste 29 Norte 0 -- -- 48
2020-06-13 18:00:00 16.6 19 Norte 37 Norte 0 -- -- 47
2020-06-13 17:00:00 17.2 17 Noroeste 35 Oeste 0 -- -- 51
2020-06-13 16:00:00 16.6 19 Noroeste 38 Noroeste 0 -- -- 50
2020-06-13 15:00:00 14.9 22 Noroeste 42 Noroeste 0 -- -- 57
2020-06-13 14:00:00 14.6 21 Noroeste 39 Norte 0 -- -- 56
2020-06-13 13:00:00 14 25 Noroeste 38 Noroeste 0 -- -- 60
2020-06-13 12:00:00 13 26 Noroeste 44 Noroeste 0 -- -- 62
2020-06-13 11:00:00 11 15 Noroeste 35 Noroeste 0 -- -- 74
2020-06-13 10:00:00 10.6 15 Noroeste 33 Noroeste 0 -- -- 76
2020-06-13 09:00:00 10.5 15 Oeste 38 Oeste 0 -- -- 80
2020-06-13 08:00:00 8.7 22 Oeste 43 Oeste 0 -- -- 87
2020-06-13 07:00:00 7 23 Oeste 37 Oeste 0 -- -- 92
2020-06-13 06:00:00 6.8 13 Oeste 26 Oeste 0 -- -- 89
2020-06-13 05:00:00 7.4 18 Oeste 26 Sudoeste 0 -- -- 87
2020-06-13 04:00:00 7.7 13 Oeste 24 Oeste 0 -- -- 87
2020-06-13 03:00:00 9.1 11 Oeste 27 Oeste 0 -- -- 76
2020-06-13 02:00:00 8.9 6 Oeste 21 Noroeste 0 -- -- 82
2020-06-13 01:00:00 9.2 12 Noroeste 28 Noroeste 0 -- -- 83
2020-06-13 00:00:00 9.5 4 Oeste 14 Noroeste 0 -- -- 69
2020-06-12 23:00:00 9.6 6 Oeste 15 Oeste 0 -- -- 70
2020-06-12 22:00:00 11.4 6 Noroeste 23 Oeste 0 -- -- 59
2020-06-12 21:00:00 12.9 9 Oeste 24 Oeste 0 -- -- 52
2020-06-12 20:00:00 15 14 Oeste 31 Oeste 0 -- -- 48
2020-06-12 19:00:00 16.1 17 Noroeste 33 Oeste 0 -- -- 46
2020-06-12 18:00:00 14.4 13 Oeste 37 Oeste 0 -- -- 52
2020-06-12 17:00:00 14.5 19 Oeste 41 Oeste 0 -- -- 54
2020-06-12 16:00:00 15.6 23 Oeste 42 Oeste 0 -- -- 49
2020-06-12 15:00:00 15.7 17 Oeste 39 Oeste 0 -- -- 53
2020-06-12 14:00:00 15.7 20 Oeste 37 Sudoeste 0 -- -- 53
2020-06-12 13:00:00 14.2 20 Oeste 40 Oeste 0 -- -- 60
2020-06-12 12:00:00 12.8 14 Oeste 41 Oeste 0 -- -- 64
2020-06-12 11:00:00 12.6 13 Oeste 44 Oeste 0 -- -- 63
2020-06-12 10:00:00 11 17 Oeste 48 Oeste 0 -- -- 66
2020-06-12 09:00:00 10.1 23 Oeste 41 Oeste 0 -- -- 74
2020-06-12 08:00:00 9.1 15 Noroeste 32 Oeste 0 -- -- 81
2020-06-12 07:00:00 7.3 18 Noroeste 36 Noroeste 0 -- -- 86
2020-06-12 06:00:00 7.8 15 Oeste 25 Oeste 0 -- -- 89
2020-06-12 05:00:00 8.5 6 Noroeste 21 Noroeste 0 -- -- 90
2020-06-12 04:00:00 9.3 13 Noroeste 26 Noroeste 0 -- -- 93
2020-06-12 03:00:00 9.4 7 Noroeste 21 Oeste 0 -- -- 93
2020-06-12 02:00:00 9.6 11 Oeste 30 Oeste 2 -- -- 94
2020-06-12 01:00:00 10.1 16 Noroeste 27 Noroeste 0.4 -- -- 93
2020-06-12 00:00:00 10.7 17 Noroeste 33 Noroeste 0 -- -- 86
2020-06-11 23:00:00 14.3 10 Noroeste 27 Oeste 0 -- -- 56
2020-06-11 22:00:00 13.9 3 Oeste 9 Oeste 0 -- -- 68
2020-06-11 21:00:00 14.5 2 Noroeste 19 Noroeste 0 -- -- 71
2020-06-11 20:00:00 15.5 17 Noroeste 33 Oeste 0 -- -- 65
2020-06-11 19:00:00 18.2 22 Oeste 45 Sudoeste 0 -- -- 47
2020-06-11 18:00:00 18.5 15 Oeste 40 Oeste 0 -- -- 47
2020-06-11 17:00:00 18.5 17 Noroeste 32 Oeste 0 -- -- 50
2020-06-11 16:00:00 18 12 Oeste 35 Oeste 0 -- -- 52
2020-06-11 15:00:00 19.5 15 Noroeste 32 Oeste 0 -- -- 49
2020-06-11 14:00:00 19.7 17 Oeste 37 Oeste 0 -- -- 51
2020-06-11 13:00:00 18.2 15 Oeste 36 Oeste 0 -- -- 52
2020-06-11 12:00:00 18.7 16 Noroeste 39 Oeste 0 -- -- 50
2020-06-11 11:00:00 16.4 12 Oeste 36 Sudoeste 0 -- -- 56
2020-06-11 10:00:00 16.4 15 Oeste 30 Oeste 0 -- -- 57
2020-06-11 09:00:00 14.5 18 Oeste 28 Oeste 0 -- -- 61
2020-06-11 08:00:00 12 18 Sudoeste 24 Sudoeste 0 -- -- 70
2020-06-11 07:00:00 10.1 18 Sudoeste 22 Sudoeste 0 -- -- 80
2020-06-11 06:00:00 11.5 18 Sudoeste 30 Sudoeste 0 -- -- 83
2020-06-11 05:00:00 11.7 24 Sudoeste 35 Sudoeste 0 -- -- 85
2020-06-11 04:00:00 11.2 18 Sudoeste 26 Sudoeste 0 -- -- 78
2020-06-11 03:00:00 11.6 15 Sudoeste 23 Sudoeste 0 -- -- 73
2020-06-11 02:00:00 9.9 3 Sudeste 8 Sur 0 -- -- 81
2020-06-11 01:00:00 10.1 3 Sur 7 Sudeste 0 -- -- 82
2020-06-11 00:00:00 10.3 0 Calma 7 Sudeste 0 -- -- 84
2020-06-10 23:00:00 10.4 8 Sudeste 15 Sur 0 -- -- 80
2020-06-10 22:00:00 11.3 0 Calma 6 Sudeste 0 -- -- 75
2020-06-10 21:00:00 12.3 5 Nordeste 11 Nordeste 0 -- -- 72
2020-06-10 20:00:00 13.2 5 Nordeste 12 Norte 0 -- -- 67
2020-06-10 19:00:00 14.2 6 Nordeste 20 Norte 0 -- -- 64
2020-06-10 18:00:00 15.5 11 Norte 28 Norte 0 -- -- 58
2020-06-10 17:00:00 16.2 13 Norte 35 Noroeste 0 -- -- 55
2020-06-10 16:00:00 15.4 13 Norte 30 Noroeste 0 -- -- 54
2020-06-10 15:00:00 15.3 17 Norte 28 Noroeste 0 -- -- 59
2020-06-10 14:00:00 15.5 14 Noroeste 32 Oeste 0 -- -- 55
2020-06-10 13:00:00 14.3 18 Norte 27 Noroeste 0 -- -- 62
2020-06-10 12:00:00 13.7 15 Noroeste 26 Noroeste 0 -- -- 66
2020-06-10 11:00:00 12 10 Norte 24 Noroeste 0 -- -- 71
2020-06-10 10:00:00 10.8 16 Noroeste 24 Noroeste 0 -- -- 76
2020-06-10 09:00:00 9.3 12 Noroeste 20 Noroeste 0 -- -- 82
2020-06-10 08:00:00 6.7 6 Noroeste 11 Noroeste 0 -- -- 90
2020-06-10 07:00:00 4.4 4 Noroeste 13 Noroeste 0 -- -- 96
2020-06-10 06:00:00 4.6 10 Noroeste 18 Noroeste 0 -- -- 94
2020-06-10 05:00:00 5.4 12 Noroeste 20 Noroeste 0 -- -- 91
2020-06-10 04:00:00 5.4 9 Noroeste 16 Noroeste 0 -- -- 92
2020-06-10 03:00:00 5.7 10 Noroeste 21 Noroeste 0 -- -- 91
2020-06-10 02:00:00 6.1 14 Noroeste 24 Noroeste 0 -- -- 91
2020-06-10 01:00:00 6.6 12 Noroeste 28 Norte 0 -- -- 88
2020-06-10 00:00:00 6.8 11 Norte 18 Norte 0 -- -- 88